createdAt,value
2018-03-24T00:04:21.125Z,92.10
2018-03-24T00:09:37.522Z,91.80
2018-03-24T00:14:44.144Z,91.90
2018-03-24T00:19:50.629Z,91.70
2018-03-24T00:24:56.405Z,92.50
2018-03-24T00:30:02.153Z,93.20
2018-03-24T00:35:07.932Z,93.30
2018-03-24T00:40:23.457Z,93.30
2018-03-24T00:45:29.300Z,92.50
2018-03-24T00:50:33.187Z,92.50
2018-03-24T00:55:40.368Z,93.00
2018-03-24T01:00:46.222Z,92.40
2018-03-24T01:05:56.345Z,92.30
2018-03-24T01:11:03.694Z,92.30
2018-03-24T01:16:09.017Z,91.90
2018-03-24T01:21:17.226Z,92.70
2018-03-24T01:26:23.689Z,92.60
2018-03-24T01:31:29.549Z,92.60
2018-03-24T01:36:36.081Z,93.20
2018-03-24T01:41:42.361Z,93.20
2018-03-24T01:46:49.150Z,93.10
2018-03-24T01:51:54.424Z,93.60
2018-03-24T01:57:00.634Z,93.60
2018-03-24T02:02:05.605Z,93.70
2018-03-24T02:07:13.370Z,93.80
2018-03-24T02:12:22.082Z,93.80
2018-03-24T02:17:29.264Z,93.70
2018-03-24T02:22:39.933Z,93.80
2018-03-24T02:27:41.687Z,93.70
2018-03-24T02:32:47.757Z,93.60
2018-03-24T02:37:58.034Z,93.70
2018-03-24T02:43:06.375Z,95.10
2018-03-24T02:48:13.030Z,95.90
2018-03-24T02:53:19.506Z,95.80
2018-03-24T02:58:28.445Z,95.80
2018-03-24T03:03:35.558Z,96.50
2018-03-24T03:08:42.050Z,97.00
2018-03-24T03:13:51.279Z,97.10
2018-03-24T03:18:58.468Z,97.30
2018-03-24T03:24:04.585Z,96.50
2018-03-24T03:29:11.309Z,96.60
2018-03-24T03:34:21.276Z,96.60
2018-03-24T03:39:30.453Z,97.50
2018-03-24T03:44:39.603Z,97.40
2018-03-24T03:49:58.241Z,96.50
2018-03-24T03:55:05.138Z,96.20
2018-03-24T04:00:16.586Z,97.00
2018-03-24T04:05:22.858Z,97.30
2018-03-24T04:10:36.405Z,98.80
2018-03-24T04:15:41.830Z,98.70
2018-03-24T04:20:51.599Z,98.50
2018-03-24T04:25:58.399Z,98.20
2018-03-24T04:31:04.913Z,98.60
2018-03-24T04:36:09.717Z,98.70
2018-03-24T04:41:14.369Z,99.20
2018-03-24T04:46:23.220Z,98.70
2018-03-24T04:51:32.214Z,98.90
2018-03-24T04:56:36.683Z,98.80
2018-03-24T05:01:41.177Z,99.00
2018-03-24T05:06:47.672Z,99.00
2018-03-24T05:11:55.686Z,99.30
2018-03-24T05:17:03.001Z,99.10
2018-03-24T05:22:10.760Z,99.40
2018-03-24T05:27:16.110Z,99.30
2018-03-24T05:32:25.838Z,99.40
2018-03-24T05:37:35.805Z,99.60
2018-03-24T05:42:41.558Z,99.80
2018-03-24T05:47:53.036Z,99.80
2018-03-24T05:52:58.445Z,99.80
2018-03-24T05:58:04.615Z,99.90
2018-03-24T06:03:09.959Z,99.90
2018-03-24T06:08:16.154Z,97.70
2018-03-24T06:13:22.337Z,97.60
2018-03-24T06:18:29.293Z,92.20
2018-03-24T06:23:36.123Z,88.00
2018-03-24T06:28:40.255Z,85.10
2018-03-24T06:33:44.073Z,82.00
2018-03-24T06:38:52.407Z,78.10
2018-03-24T06:43:56.762Z,80.20
2018-03-24T06:49:00.471Z,81.90
2018-03-24T06:54:04.664Z,84.90
2018-03-24T06:59:10.138Z,89.80
2018-03-24T07:04:14.985Z,89.60
2018-03-24T07:09:18.929Z,91.70
2018-03-24T07:14:22.982Z,93.10
2018-03-24T07:19:30.885Z,87.40
2018-03-24T07:24:36.380Z,85.90
2018-03-24T07:29:40.299Z,85.90
2018-03-24T07:34:45.285Z,87.70
2018-03-24T07:39:49.059Z,86.60
2018-03-24T07:44:53.596Z,83.00
2018-03-24T07:49:58.874Z,86.70
2018-03-24T07:55:03.285Z,87.40
2018-03-24T08:00:08.097Z,87.70
2018-03-24T08:05:11.878Z,87.60
2018-03-24T08:10:15.764Z,85.60
2018-03-24T08:15:19.601Z,80.70
2018-03-24T08:20:23.891Z,81.50
2018-03-24T08:25:28.191Z,78.00
2018-03-24T08:30:32.578Z,76.60
2018-03-24T08:35:36.630Z,75.40
2018-03-24T08:40:40.145Z,74.70
2018-03-24T08:45:45.623Z,74.30
2018-03-24T08:50:49.609Z,71.60
2018-03-24T08:55:54.058Z,69.90
2018-03-24T09:00:57.575Z,69.40
2018-03-24T09:06:00.686Z,67.60
2018-03-24T09:11:05.828Z,69.20
2018-03-24T09:16:14.639Z,65.90
2018-03-24T09:21:18.766Z,65.90
2018-03-24T09:26:26.413Z,64.70
2018-03-24T09:31:32.078Z,64.70
2018-03-24T09:36:38.285Z,62.70
2018-03-24T09:41:43.353Z,59.90
2018-03-24T09:46:47.787Z,61.80
2018-03-24T09:51:51.984Z,55.40
2018-03-24T09:56:56.568Z,56.00
2018-03-24T10:02:00.189Z,57.30
2018-03-24T10:07:01.830Z,53.20
2018-03-24T10:12:03.421Z,55.80
2018-03-24T10:17:12.088Z,55.10
2018-03-24T10:38:31.549Z,52.60
2018-03-24T10:43:39.036Z,50.60
2018-03-24T10:48:41.328Z,49.80
2018-03-24T10:53:42.957Z,49.80
2018-03-24T10:58:44.649Z,49.10
2018-03-24T11:03:46.212Z,48.90
2018-03-24T11:08:47.913Z,47.90
2018-03-24T11:13:49.504Z,48.10
2018-03-24T11:18:51.801Z,45.60
2018-03-24T11:23:53.324Z,45.50
2018-03-24T11:28:54.860Z,44.80
2018-03-24T11:33:56.444Z,44.60
2018-03-24T11:38:58.047Z,46.00
2018-03-24T11:43:59.601Z,45.70
2018-03-24T11:49:01.422Z,46.30
2018-03-24T11:54:02.975Z,47.50
2018-03-24T11:59:05.271Z,47.80
2018-03-24T12:04:06.848Z,47.80
2018-03-24T12:09:08.497Z,46.00
2018-03-24T12:14:10.824Z,45.60
2018-03-24T12:19:12.430Z,45.60
2018-03-24T12:24:13.963Z,41.50
2018-03-24T12:29:15.524Z,40.60
2018-03-24T12:34:17.291Z,39.80
2018-03-24T12:39:18.814Z,39.00
2018-03-24T12:44:22.690Z,39.20
2018-03-24T12:49:24.915Z,38.10
2018-03-24T12:54:30.097Z,40.30
2018-03-24T12:59:33.809Z,42.10
2018-03-24T13:04:39.425Z,42.80
2018-03-24T13:09:44.846Z,42.70
2018-03-24T13:14:48.597Z,43.10
2018-03-24T13:19:52.057Z,40.90
2018-03-24T13:24:57.741Z,40.40
2018-03-24T13:30:02.582Z,39.10
2018-03-24T13:35:07.272Z,38.50
2018-03-24T13:40:12.484Z,38.00
2018-03-24T13:45:16.480Z,39.50
2018-03-24T13:50:21.828Z,40.20
2018-03-24T13:55:26.156Z,40.20
2018-03-24T14:00:30.475Z,39.70
2018-03-24T14:05:36.890Z,44.00
2018-03-24T14:10:41.782Z,40.80
2018-03-24T14:15:46.070Z,40.90
2018-03-24T14:20:51.826Z,42.10
2018-03-24T14:25:56.766Z,40.80
2018-03-24T14:31:03.548Z,39.20
2018-03-24T14:36:09.180Z,38.20
2018-03-24T14:41:14.474Z,37.70
2018-03-24T14:46:20.144Z,38.10
2018-03-24T14:51:29.599Z,36.30
2018-03-24T14:56:36.611Z,37.50
2018-03-24T15:01:44.297Z,37.30
2018-03-24T15:06:51.393Z,38.50
2018-03-24T15:11:56.262Z,37.80
2018-03-24T15:17:02.429Z,39.00
2018-03-24T15:22:07.283Z,38.90
2018-03-24T15:27:12.415Z,39.00
2018-03-24T15:32:34.047Z,39.80
2018-03-24T15:37:42.964Z,39.00
2018-03-24T15:42:47.706Z,39.20
2018-03-24T15:47:51.860Z,40.30
2018-03-24T15:52:57.857Z,37.80
2018-03-24T15:58:03.031Z,37.80
2018-03-24T16:03:09.297Z,37.80
2018-03-24T16:08:15.304Z,37.80
2018-03-24T16:13:20.477Z,39.40
2018-03-24T16:18:28.090Z,38.90
2018-03-24T16:23:34.147Z,38.80
2018-03-24T16:28:39.990Z,38.20
2018-03-24T16:33:46.299Z,38.60
2018-03-24T16:38:52.413Z,38.50
2018-03-24T16:43:57.082Z,38.50
2018-03-24T16:49:02.629Z,39.30
2018-03-24T16:54:07.993Z,39.50
2018-03-24T16:59:13.598Z,40.50
2018-03-24T17:04:19.958Z,39.90
2018-03-24T17:09:24.492Z,39.90
2018-03-24T17:14:30.098Z,40.40
2018-03-24T17:19:37.227Z,41.40
2018-03-24T17:24:43.914Z,41.90
2018-03-24T17:29:50.385Z,42.20
2018-03-24T17:34:56.666Z,43.30
2018-03-24T17:40:02.875Z,43.20
2018-03-24T17:45:07.385Z,43.50
2018-03-24T17:50:12.994Z,44.20
2018-03-24T17:55:19.130Z,45.20
2018-03-24T18:00:24.846Z,44.60
2018-03-24T18:05:31.580Z,45.60
2018-03-24T18:10:38.624Z,47.20
2018-03-24T18:15:50.400Z,47.20
2018-03-24T18:20:57.876Z,47.40
2018-03-24T18:26:08.165Z,47.80
2018-03-24T18:31:17.194Z,47.80
2018-03-24T18:36:22.548Z,47.70
2018-03-24T18:41:29.401Z,48.10
2018-03-24T18:46:36.592Z,48.80
2018-03-24T18:51:42.685Z,50.70
2018-03-24T18:56:48.164Z,51.80
2018-03-24T19:01:53.150Z,52.50
2018-03-24T19:06:58.869Z,52.90
2018-03-24T19:12:04.997Z,53.00
2018-03-24T19:17:12.396Z,53.00
2018-03-24T19:22:21.032Z,52.40
2018-03-24T19:27:28.324Z,53.10
2018-03-24T19:32:31.905Z,52.20
2018-03-24T19:37:35.258Z,52.50
2018-03-24T19:42:40.454Z,52.70
2018-03-24T19:47:43.825Z,53.40
2018-03-24T19:52:49.280Z,55.50
2018-03-24T19:57:52.933Z,56.80
2018-03-24T20:02:56.751Z,56.70
2018-03-24T20:08:00.050Z,57.10
2018-03-24T20:13:03.418Z,58.30
2018-03-24T20:18:07.787Z,61.60
2018-03-24T20:23:11.497Z,61.60
2018-03-24T20:28:15.455Z,62.40
2018-03-24T20:33:20.515Z,65.00
2018-03-24T20:38:25.567Z,64.10
2018-03-24T20:43:29.132Z,64.60
2018-03-24T20:48:33.019Z,64.60
2018-03-24T20:53:36.706Z,65.30
2018-03-24T20:58:41.745Z,65.40
2018-03-24T21:03:47.058Z,64.40
2018-03-24T21:08:52.605Z,62.90
2018-03-24T21:13:56.439Z,62.90
2018-03-24T21:19:00.095Z,64.00
2018-03-24T21:24:11.734Z,64.20
2018-03-24T21:29:16.455Z,64.30
2018-03-24T21:34:20.185Z,65.40
2018-03-24T21:39:24.421Z,65.70
2018-03-24T21:44:29.393Z,66.30
2018-03-24T21:49:44.447Z,67.10
2018-03-24T21:54:48.308Z,66.80
2018-03-24T21:59:52.892Z,67.90
2018-03-24T22:04:57.925Z,68.40
2018-03-24T22:10:02.332Z,68.30
2018-03-24T22:15:05.964Z,68.70
2018-03-24T22:20:09.674Z,68.60
2018-03-24T22:25:13.750Z,69.80
2018-03-24T22:30:18.791Z,71.30
2018-03-24T22:35:24.199Z,71.90
2018-03-24T22:40:27.989Z,71.80
2018-03-24T22:45:32.147Z,73.30
2018-03-24T22:50:36.184Z,73.60
2018-03-24T22:55:40.757Z,73.60
2018-03-24T23:00:49.188Z,73.50
2018-03-24T23:05:51.384Z,73.40
2018-03-24T23:10:52.966Z,74.20
2018-03-24T23:15:54.560Z,74.60
2018-03-24T23:20:56.033Z,75.00
2018-03-24T23:25:57.642Z,75.50
2018-03-24T23:30:59.938Z,76.80
2018-03-24T23:36:01.617Z,76.80
2018-03-24T23:41:03.375Z,77.40
2018-03-24T23:46:05.643Z,79.00
2018-03-24T23:51:07.954Z,79.00
2018-03-24T23:56:09.502Z,78.90
